Lahaska, Pennsylvania
Current Conditions -  °F | °C
As of 12:54 AM on Saturday 25 Oct 2014 (Local Time) from KDYL Reporting Station
Clear Clear  
Wind Chill: 52°   Ceiling: Unl
Heat Index: 52°   Visibility: 10mi
Dew Point: 37°   Wind: 6mph
Humidity: 57%   Direction: 320°NW
Pressure: 29.88"   Gusts: NA
Location:  40.35°N, 75.03°W
Report Text: KDYL 250454Z AUTO 32005KT 10SM CLR 11/03 A2988 RMK AO2 SLP116 T01110028 402000100
Loading
Personal Weather Stations






























Interactive Weather Map
Tropical Storm Tracking
New forecast layout! Learn more

10-Day Weather Forecast

Advertisements
Track Severe Weather on mobile